createdAt,value
2023-05-19T00:01:44.908Z,23.65
2023-05-19T00:04:15.691Z,26.27
2023-05-19T00:06:49.333Z,23.88
2023-05-19T00:09:19.484Z,22.92
2023-05-19T00:11:49.316Z,23.45
2023-05-19T00:14:19.086Z,22.98
2023-05-19T00:16:48.570Z,23.55
2023-05-19T00:19:17.867Z,23.73
2023-05-19T00:21:47.055Z,22.35
2023-05-19T00:24:16.185Z,20.90
2023-05-19T00:26:45.341Z,21.30
2023-05-19T00:29:14.471Z,26.85
2023-05-19T00:31:43.611Z,25.58
2023-05-19T00:34:13.533Z,27.38
2023-05-19T00:36:42.871Z,31.13
2023-05-19T00:39:12.173Z,24.13
2023-05-19T00:41:41.528Z,21.65
2023-05-19T00:44:10.690Z,25.58
2023-05-19T00:46:40.059Z,23.63
2023-05-19T00:49:09.298Z,24.85
2023-05-19T00:51:38.607Z,23.13
2023-05-19T00:54:07.957Z,22.08
2023-05-19T00:56:37.282Z,26.58
2023-05-19T00:59:07.471Z,33.70
2023-05-19T01:01:37.706Z,35.38
2023-05-19T01:04:10.907Z,24.95
2023-05-19T01:06:40.415Z,23.30
2023-05-19T01:09:10.139Z,25.30
2023-05-19T01:11:39.410Z,26.67
2023-05-19T01:14:28.225Z,23.67
2023-05-19T01:17:20.372Z,21.20
2023-05-19T01:20:03.097Z,22.05
2023-05-19T01:23:06.199Z,19.33
2023-05-19T01:26:38.232Z,19.83
2023-05-19T01:29:45.347Z,22.52
2023-05-19T01:32:19.109Z,19.57
2023-05-19T01:34:52.241Z,17.90
2023-05-19T01:37:23.714Z,18.17
2023-05-19T01:39:53.989Z,18.30
2023-05-19T01:42:24.659Z,18.20
2023-05-19T01:44:55.995Z,17.67
2023-05-19T01:47:30.860Z,18.23
2023-05-19T01:50:00.224Z,18.95
2023-05-19T01:52:29.531Z,18.02
2023-05-19T01:54:58.778Z,18.70
2023-05-19T01:58:12.104Z,18.27
2023-05-19T02:00:57.454Z,18.40
2023-05-19T02:04:11.057Z,18.65
2023-05-19T02:07:07.202Z,17.70
2023-05-19T02:10:12.610Z,18.92
2023-05-19T02:12:42.694Z,17.20
2023-05-19T02:15:18.276Z,18.15
2023-05-19T02:17:52.834Z,18.35
2023-05-19T02:20:25.333Z,17.50
2023-05-19T02:22:54.534Z,17.90
2023-05-19T02:25:25.311Z,17.75
2023-05-19T02:27:56.042Z,17.73
2023-05-19T02:30:25.513Z,19.15
2023-05-19T02:32:55.185Z,16.63
2023-05-19T02:35:24.725Z,17.65
2023-05-19T02:37:55.099Z,17.88
2023-05-19T02:40:24.866Z,17.67
2023-05-19T02:42:54.149Z,18.58
2023-05-19T02:45:23.436Z,17.45
2023-05-19T02:47:52.771Z,18.08
2023-05-19T02:50:23.483Z,17.38
2023-05-19T02:52:53.812Z,17.60
2023-05-19T02:55:23.040Z,21.58
2023-05-19T02:57:52.338Z,17.75
2023-05-19T03:00:21.791Z,17.33
2023-05-19T03:02:51.082Z,17.80
2023-05-19T03:05:21.156Z,18.15
2023-05-19T03:07:50.344Z,18.02
2023-05-19T03:10:19.653Z,17.02
2023-05-19T03:12:48.894Z,17.90
2023-05-19T03:15:19.838Z,17.33
2023-05-19T03:17:49.221Z,17.15
2023-05-19T03:20:19.077Z,18.20
2023-05-19T03:22:48.297Z,18.15
2023-05-19T03:25:18.090Z,17.55
2023-05-19T03:27:47.289Z,17.05
2023-05-19T03:30:17.099Z,17.88
2023-05-19T03:32:46.365Z,17.02
2023-05-19T03:35:16.023Z,16.88
2023-05-19T03:37:45.302Z,17.90
2023-05-19T03:40:15.481Z,16.92
2023-05-19T03:42:45.320Z,18.60
2023-05-19T03:45:15.257Z,18.00
2023-05-19T03:47:44.529Z,17.20
2023-05-19T03:50:13.770Z,17.52
2023-05-19T03:52:46.590Z,17.38
2023-05-19T03:55:16.065Z,17.17
2023-05-19T03:57:45.342Z,16.40
2023-05-19T04:00:18.374Z,15.38
2023-05-19T04:02:47.676Z,15.73
2023-05-19T04:05:17.181Z,15.15
2023-05-19T04:07:47.791Z,16.50
2023-05-19T04:10:17.109Z,16.50
2023-05-19T04:12:46.327Z,15.95
2023-05-19T04:15:15.702Z,16.85
2023-05-19T04:17:51.567Z,16.23
2023-05-19T04:20:20.958Z,16.08
2023-05-19T04:22:50.197Z,16.58
2023-05-19T04:25:21.171Z,15.13
2023-05-19T04:27:50.429Z,15.48
2023-05-19T04:30:23.202Z,14.77
2023-05-19T04:32:52.463Z,14.70
2023-05-19T04:35:23.542Z,15.63
2023-05-19T04:37:55.324Z,15.25
2023-05-19T04:40:24.865Z,14.77
2023-05-19T04:42:55.135Z,15.98
2023-05-19T04:45:26.809Z,15.57
2023-05-19T04:47:58.963Z,14.70
2023-05-19T04:50:29.769Z,14.13
2023-05-19T04:53:00.200Z,15.07
2023-05-19T04:55:29.495Z,14.73
2023-05-19T04:57:58.709Z,15.10
2023-05-19T05:00:28.106Z,14.70
2023-05-19T05:02:58.871Z,15.15
2023-05-19T05:05:28.144Z,15.07
2023-05-19T05:07:57.365Z,15.57
2023-05-19T05:10:27.111Z,14.75
2023-05-19T05:12:56.923Z,15.65
2023-05-19T05:15:29.667Z,14.68
2023-05-19T05:17:59.268Z,14.65
2023-05-19T05:20:29.103Z,14.02
2023-05-19T05:22:59.001Z,14.07
2023-05-19T05:25:28.600Z,13.88
2023-05-19T05:27:59.955Z,14.82
2023-05-19T05:30:29.131Z,14.45
2023-05-19T05:32:59.089Z,15.15
2023-05-19T05:35:28.927Z,14.85
2023-05-19T05:37:58.128Z,15.85
2023-05-19T05:40:27.440Z,14.20
2023-05-19T05:42:57.883Z,13.80
2023-05-19T05:45:27.705Z,14.10
2023-05-19T05:47:57.553Z,15.23
2023-05-19T05:50:27.402Z,14.93
2023-05-19T05:53:01.044Z,14.00
2023-05-19T05:55:31.061Z,14.90
2023-05-19T05:58:03.023Z,15.85
2023-05-19T06:00:32.663Z,14.27
2023-05-19T06:03:02.191Z,14.68
2023-05-19T06:05:31.699Z,14.88
2023-05-19T06:08:01.002Z,15.82
2023-05-19T06:10:33.486Z,15.80
2023-05-19T06:13:02.962Z,15.07
2023-05-19T06:15:32.237Z,14.82
2023-05-19T06:18:01.973Z,14.52
2023-05-19T06:20:31.910Z,13.98
2023-05-19T06:23:02.816Z,13.55
2023-05-19T06:25:32.400Z,14.50
2023-05-19T06:28:01.876Z,14.20
2023-05-19T06:30:31.187Z,13.63
2023-05-19T06:33:00.766Z,15.75
2023-05-19T06:35:30.182Z,14.10
2023-05-19T06:37:59.348Z,15.20
2023-05-19T06:40:28.609Z,13.75
2023-05-19T06:42:57.805Z,14.65
2023-05-19T06:45:27.020Z,15.00
2023-05-19T06:47:56.572Z,14.80
2023-05-19T06:50:26.441Z,13.88
2023-05-19T06:52:55.721Z,15.13
2023-05-19T06:55:25.237Z,13.88
2023-05-19T06:57:54.491Z,13.80
2023-05-19T07:00:31.891Z,14.98
2023-05-19T07:03:01.812Z,15.52
2023-05-19T07:05:31.119Z,14.07
2023-05-19T07:08:00.353Z,13.95
2023-05-19T07:10:30.115Z,13.75
2023-05-19T07:12:59.687Z,14.60
2023-05-19T07:15:28.905Z,13.75
2023-05-19T07:18:00.263Z,13.98
2023-05-19T07:20:29.599Z,13.77
2023-05-19T07:22:58.825Z,14.35
2023-05-19T07:25:30.006Z,13.23
2023-05-19T07:27:59.620Z,13.65
2023-05-19T07:30:31.257Z,13.07
2023-05-19T07:33:00.871Z,12.93
2023-05-19T07:35:30.995Z,13.65
2023-05-19T07:38:00.212Z,12.05
2023-05-19T07:40:29.495Z,13.00
2023-05-19T07:42:58.907Z,12.75
2023-05-19T07:45:28.278Z,11.98
2023-05-19T07:47:57.739Z,13.10
2023-05-19T07:50:27.820Z,12.25
2023-05-19T07:52:57.549Z,13.68
2023-05-19T07:55:27.207Z,12.90
2023-05-19T07:57:57.132Z,12.45
2023-05-19T08:00:26.562Z,12.82
2023-05-19T08:02:57.815Z,12.68
2023-05-19T08:05:27.354Z,13.07
2023-05-19T08:07:57.578Z,12.02
2023-05-19T08:10:26.858Z,11.77
2023-05-19T08:12:56.162Z,13.02
2023-05-19T08:15:26.395Z,11.82
2023-05-19T08:17:55.645Z,13.25
2023-05-19T08:20:25.319Z,12.65
2023-05-19T08:22:54.591Z,12.05
2023-05-19T08:25:24.050Z,11.43
2023-05-19T08:27:53.224Z,11.63
2023-05-19T08:30:22.963Z,12.40
2023-05-19T08:32:52.190Z,11.63
2023-05-19T08:35:21.575Z,12.18
2023-05-19T08:37:50.890Z,12.15
2023-05-19T08:40:20.528Z,11.07
2023-05-19T08:42:50.271Z,11.77
2023-05-19T08:45:19.653Z,12.88
2023-05-19T08:47:50.251Z,11.60
2023-05-19T08:50:26.752Z,12.43
2023-05-19T08:53:36.249Z,13.20
2023-05-19T08:56:26.220Z,12.38
2023-05-19T08:58:57.485Z,11.48
2023-05-19T09:01:27.886Z,12.93
2023-05-19T09:03:57.443Z,11.85
2023-05-19T09:06:27.884Z,13.27
2023-05-19T09:08:57.485Z,11.60
2023-05-19T09:11:27.099Z,11.82
2023-05-19T09:13:56.414Z,13.43
2023-05-19T09:16:27.951Z,11.80
2023-05-19T09:19:01.680Z,12.77
2023-05-19T09:21:34.654Z,11.75
2023-05-19T09:24:09.497Z,12.13
2023-05-19T09:26:44.124Z,12.35
2023-05-19T09:29:20.507Z,12.40
2023-05-19T09:32:01.658Z,15.30
2023-05-19T09:34:31.506Z,12.38
2023-05-19T09:37:01.074Z,12.93
2023-05-19T09:39:31.072Z,12.85
2023-05-19T09:42:00.266Z,12.05
2023-05-19T09:44:32.595Z,13.13
2023-05-19T09:47:01.925Z,13.77
2023-05-19T09:49:33.612Z,13.95
2023-05-19T09:52:05.490Z,13.32
2023-05-19T09:54:36.571Z,13.13
2023-05-19T09:57:08.955Z,15.07
2023-05-19T09:59:40.110Z,17.83
2023-05-19T10:02:19.731Z,16.20
2023-05-19T10:04:50.032Z,15.73
2023-05-19T10:07:21.004Z,15.60
2023-05-19T10:09:52.572Z,15.55
2023-05-19T10:12:23.326Z,13.57
2023-05-19T10:14:55.701Z,16.27
2023-05-19T10:17:27.352Z,16.00
2023-05-19T10:19:56.931Z,14.98
2023-05-19T10:22:26.434Z,14.75
2023-05-19T10:24:56.924Z,15.68
2023-05-19T10:27:29.284Z,16.15
2023-05-19T10:30:06.181Z,16.40
2023-05-19T10:32:37.084Z,16.73
2023-05-19T10:35:31.454Z,15.63
2023-05-19T10:38:47.364Z,18.27
2023-05-19T10:41:32.683Z,17.25
2023-05-19T10:44:15.999Z,17.10
2023-05-19T10:46:45.657Z,18.30
2023-05-19T10:49:26.241Z,17.25
2023-05-19T10:51:58.142Z,18.58
2023-05-19T10:54:55.566Z,17.13
2023-05-19T10:59:59.122Z,16.25
2023-05-19T11:02:45.128Z,17.48
2023-05-19T11:05:19.233Z,15.98
2023-05-19T11:08:08.832Z,18.33
2023-05-19T11:10:38.059Z,17.50
2023-05-19T11:13:07.542Z,16.77
2023-05-19T11:15:38.297Z,17.70
2023-05-19T11:18:07.942Z,18.10
2023-05-19T11:20:41.194Z,17.67
2023-05-19T11:23:21.241Z,17.55
2023-05-19T11:25:54.854Z,18.77
2023-05-19T11:28:30.404Z,18.90
2023-05-19T11:31:02.228Z,20.15
2023-05-19T11:33:34.659Z,18.27
2023-05-19T11:36:05.602Z,20.02
2023-05-19T11:38:40.691Z,20.15
2023-05-19T11:41:10.105Z,20.55
2023-05-19T11:43:39.225Z,20.13
2023-05-19T11:46:10.599Z,21.35
2023-05-19T11:48:39.862Z,20.85
2023-05-19T11:51:09.311Z,22.42
2023-05-19T11:53:39.675Z,23.23
2023-05-19T11:56:09.153Z,25.70
2023-05-19T11:58:39.614Z,23.15
2023-05-19T12:01:08.803Z,24.52
2023-05-19T12:03:38.376Z,24.20
2023-05-19T12:06:09.541Z,26.95
2023-05-19T12:08:38.859Z,26.48
2023-05-19T12:11:09.016Z,27.23
2023-05-19T12:13:38.712Z,27.10
2023-05-19T12:16:09.735Z,36.55
2023-05-19T12:18:40.373Z,43.45
2023-05-19T12:21:09.677Z,34.58
2023-05-19T12:23:41.037Z,30.63
2023-05-19T12:26:11.566Z,28.38
2023-05-19T12:28:40.895Z,28.73
2023-05-19T12:31:10.156Z,29.60
2023-05-19T12:33:39.502Z,28.38
2023-05-19T12:36:09.715Z,29.73
2023-05-19T12:38:40.549Z,30.55
2023-05-19T12:41:13.595Z,30.48
2023-05-19T12:43:43.369Z,30.45
2023-05-19T12:46:14.465Z,29.42
2023-05-19T12:48:48.437Z,30.95
2023-05-19T12:51:21.544Z,31.42
2023-05-19T12:53:52.542Z,28.73
2023-05-19T12:56:22.244Z,31.40
2023-05-19T12:58:56.843Z,31.45
2023-05-19T13:01:26.151Z,30.75
2023-05-19T13:03:55.620Z,31.73
2023-05-19T13:06:24.954Z,33.33
2023-05-19T13:08:54.096Z,33.33
2023-05-19T13:11:23.289Z,32.13
2023-05-19T13:13:52.583Z,33.72
2023-05-19T13:16:21.858Z,32.83
2023-05-19T13:18:51.382Z,34.25
2023-05-19T13:21:20.709Z,35.10
2023-05-19T13:23:49.891Z,35.33
2023-05-19T13:26:19.156Z,34.97
2023-05-19T13:28:48.948Z,35.70
2023-05-19T13:31:21.026Z,35.42
2023-05-19T13:33:50.817Z,37.45
2023-05-19T13:36:22.989Z,34.25
2023-05-19T13:38:57.565Z,36.33
2023-05-19T13:41:27.859Z,34.90
2023-05-19T13:44:03.041Z,34.88
2023-05-19T13:46:44.017Z,36.22
2023-05-19T13:49:14.294Z,34.05
2023-05-19T13:51:45.360Z,33.63
2023-05-19T13:54:17.602Z,35.00
2023-05-19T13:56:49.947Z,33.25
2023-05-19T13:59:19.404Z,35.95
2023-05-19T14:01:49.271Z,33.58
2023-05-19T14:04:20.624Z,33.35
2023-05-19T14:06:52.808Z,33.90
2023-05-19T14:09:22.809Z,30.00
2023-05-19T14:11:52.461Z,28.13
2023-05-19T14:14:22.620Z,29.13
2023-05-19T14:16:51.916Z,27.85
2023-05-19T14:19:21.433Z,26.05
2023-05-19T14:21:54.918Z,24.70
2023-05-19T14:24:24.186Z,23.70
2023-05-19T14:26:54.307Z,21.77
2023-05-19T14:29:23.653Z,22.20
2023-05-19T14:31:52.983Z,20.40
2023-05-19T14:34:22.455Z,19.90
2023-05-19T14:36:52.155Z,20.02
2023-05-19T14:39:21.596Z,19.42
2023-05-19T14:41:52.452Z,17.85
2023-05-19T14:44:21.763Z,18.50
2023-05-19T14:46:50.951Z,19.13
2023-05-19T14:49:20.272Z,18.85
2023-05-19T14:51:49.547Z,18.17
2023-05-19T14:54:21.728Z,16.38
2023-05-19T14:56:50.956Z,18.02
2023-05-19T14:59:20.172Z,17.05
2023-05-19T15:01:49.554Z,17.45
2023-05-19T15:04:18.930Z,18.48
2023-05-19T15:06:52.315Z,16.95
2023-05-19T15:09:27.977Z,18.50
2023-05-19T15:11:57.303Z,17.98
2023-05-19T15:14:27.861Z,18.63
2023-05-19T15:16:58.041Z,17.67
2023-05-19T15:19:30.337Z,18.10
2023-05-19T15:21:59.629Z,18.23
2023-05-19T15:24:29.091Z,18.23
2023-05-19T15:27:00.740Z,18.95
2023-05-19T15:29:38.790Z,19.45
2023-05-19T15:34:37.864Z,18.98
2023-05-19T15:37:07.768Z,18.95
2023-05-19T15:39:37.094Z,17.85
2023-05-19T15:42:06.512Z,19.13
2023-05-19T15:44:37.881Z,19.65
2023-05-19T15:47:07.395Z,20.05
2023-05-19T15:49:39.584Z,19.35
2023-05-19T15:52:09.131Z,19.83
2023-05-19T15:55:00.846Z,20.38
2023-05-19T15:57:30.115Z,19.05
2023-05-19T16:00:02.058Z,20.27
2023-05-19T16:02:34.168Z,19.35
2023-05-19T16:05:03.481Z,19.60
2023-05-19T16:07:35.700Z,20.63
2023-05-19T16:10:07.991Z,19.85
2023-05-19T16:12:37.991Z,21.08
2023-05-19T16:15:07.940Z,20.88
2023-05-19T16:17:37.271Z,19.73
2023-05-19T16:20:07.569Z,20.00
2023-05-19T16:22:36.913Z,20.33
2023-05-19T16:25:07.033Z,20.63
2023-05-19T16:27:36.456Z,20.20
2023-05-19T16:30:06.694Z,21.58
2023-05-19T16:32:36.015Z,20.83
2023-05-19T16:35:06.565Z,20.55
2023-05-19T16:37:36.342Z,21.13
2023-05-19T16:40:06.004Z,21.33
2023-05-19T16:42:35.279Z,20.70
2023-05-19T16:45:04.753Z,21.17
2023-05-19T16:47:37.161Z,21.30
2023-05-19T16:50:07.605Z,22.02
2023-05-19T16:52:37.757Z,22.38
2023-05-19T16:55:11.883Z,21.33
2023-05-19T16:57:41.128Z,21.27
2023-05-19T17:00:11.417Z,23.60
2023-05-19T17:02:40.781Z,20.98
2023-05-19T17:05:10.805Z,21.30
2023-05-19T17:07:40.041Z,20.48
2023-05-19T17:10:10.110Z,21.67
2023-05-19T17:12:39.392Z,21.77
2023-05-19T17:15:09.368Z,21.17
2023-05-19T17:17:38.639Z,21.50
2023-05-19T17:20:08.901Z,23.75
2023-05-19T17:22:38.183Z,22.85
2023-05-19T17:25:08.406Z,21.90
2023-05-19T17:27:37.758Z,23.25
2023-05-19T17:30:08.078Z,22.33
2023-05-19T17:32:40.238Z,22.48
2023-05-19T17:35:10.456Z,21.77
2023-05-19T17:37:39.686Z,23.08
2023-05-19T17:40:10.001Z,22.40
2023-05-19T17:42:39.270Z,22.67
2023-05-19T17:45:12.836Z,23.50
2023-05-19T17:47:42.111Z,23.40
2023-05-19T17:50:12.182Z,23.27
2023-05-19T17:52:42.459Z,22.85
2023-05-19T17:55:13.704Z,23.98
2023-05-19T17:57:49.303Z,22.55
2023-05-19T18:00:22.571Z,23.23
2023-05-19T18:02:52.785Z,22.58
2023-05-19T18:05:22.765Z,23.35
2023-05-19T18:07:52.353Z,22.58
2023-05-19T18:10:22.191Z,22.85
2023-05-19T18:12:54.802Z,22.77
2023-05-19T18:15:25.254Z,23.77
2023-05-19T18:17:54.578Z,22.35
2023-05-19T18:20:23.878Z,22.92
2023-05-19T18:22:53.885Z,23.90
2023-05-19T18:25:25.857Z,22.40
2023-05-19T18:27:58.054Z,22.20
2023-05-19T18:30:27.397Z,23.45
2023-05-19T18:32:56.801Z,23.65
2023-05-19T18:35:26.584Z,23.58
2023-05-19T18:37:58.418Z,23.27
2023-05-19T18:40:27.805Z,22.67
2023-05-19T18:42:57.100Z,23.02
2023-05-19T18:45:26.529Z,23.77
2023-05-19T18:47:55.868Z,23.60
2023-05-19T18:50:25.451Z,22.92
2023-05-19T18:52:54.705Z,23.27
2023-05-19T18:55:24.803Z,22.33
2023-05-19T18:57:56.426Z,24.20
2023-05-19T19:00:26.811Z,23.42
2023-05-19T19:02:56.132Z,23.27
2023-05-19T19:05:25.428Z,23.20
2023-05-19T19:07:54.665Z,23.08
2023-05-19T19:10:24.042Z,23.23
2023-05-19T19:12:53.238Z,22.75
2023-05-19T19:15:22.514Z,23.48
2023-05-19T19:17:51.980Z,23.50
2023-05-19T19:20:21.728Z,22.83
2023-05-19T19:22:52.293Z,22.60
2023-05-19T19:25:23.281Z,21.92
2023-05-19T19:27:53.077Z,22.45
2023-05-19T19:30:22.369Z,23.55
2023-05-19T19:32:51.657Z,22.95
2023-05-19T19:35:21.046Z,22.35
2023-05-19T19:37:52.634Z,23.15
2023-05-19T19:40:22.077Z,22.42
2023-05-19T19:42:51.352Z,21.52
2023-05-19T19:45:21.901Z,21.88
2023-05-19T19:47:51.183Z,21.48
2023-05-19T19:50:20.561Z,22.60
2023-05-19T19:52:49.823Z,21.55
2023-05-19T19:55:19.259Z,22.17
2023-05-19T19:57:50.198Z,22.08
2023-05-19T20:00:21.371Z,21.65
2023-05-19T20:03:02.671Z,22.17
2023-05-19T20:05:33.710Z,23.33
2023-05-19T20:08:03.000Z,22.02
2023-05-19T20:10:32.567Z,22.05
2023-05-19T20:13:02.214Z,21.65
2023-05-19T20:15:31.532Z,22.80
2023-05-19T20:18:00.909Z,24.17
2023-05-19T20:20:30.334Z,23.77
2023-05-19T20:22:59.614Z,24.15
2023-05-19T20:25:28.894Z,23.02
2023-05-19T20:27:58.272Z,24.42
2023-05-19T20:30:27.872Z,23.35
2023-05-19T20:32:57.164Z,24.42
2023-05-19T20:35:26.757Z,24.00
2023-05-19T20:37:56.184Z,24.13
2023-05-19T20:40:25.392Z,24.55
2023-05-19T20:42:54.672Z,24.13
2023-05-19T20:45:23.906Z,25.17
2023-05-19T20:47:54.802Z,25.35
2023-05-19T20:50:24.242Z,24.88
2023-05-19T20:52:53.461Z,24.20
2023-05-19T20:55:22.791Z,23.52
2023-05-19T20:57:52.047Z,23.60
2023-05-19T21:00:22.439Z,24.95
2023-05-19T21:02:52.609Z,24.70
2023-05-19T21:05:21.946Z,23.70
2023-05-19T21:07:51.239Z,25.02
2023-05-19T21:10:20.573Z,25.67
2023-05-19T21:12:50.072Z,24.35
2023-05-19T21:15:19.513Z,23.23
2023-05-19T21:17:56.066Z,25.15
2023-05-19T21:20:25.401Z,22.83
2023-05-19T21:22:54.610Z,23.33
2023-05-19T21:25:24.111Z,23.35
2023-05-19T21:27:53.360Z,23.48
2023-05-19T21:30:24.545Z,23.17
2023-05-19T21:32:54.276Z,23.65
2023-05-19T21:35:23.950Z,22.60
2023-05-19T21:37:53.723Z,24.08
2023-05-19T21:40:22.952Z,22.60
2023-05-19T21:42:52.182Z,24.98
2023-05-19T21:45:21.501Z,24.42
2023-05-19T21:47:50.770Z,24.90
2023-05-19T21:50:20.084Z,25.85
2023-05-19T21:52:49.363Z,26.30
2023-05-19T21:55:18.613Z,24.52
2023-05-19T21:57:50.897Z,23.85
2023-05-19T22:00:20.290Z,26.13
2023-05-19T22:02:50.710Z,24.33
2023-05-19T22:05:20.084Z,25.45
2023-05-19T22:07:49.364Z,24.38
2023-05-19T22:10:18.633Z,25.17
2023-05-19T22:12:48.034Z,25.52
2023-05-19T22:15:17.275Z,22.85
2023-05-19T22:17:46.554Z,23.55
2023-05-19T22:20:15.909Z,23.83
2023-05-19T22:22:45.149Z,24.17
2023-05-19T22:25:14.427Z,23.55
2023-05-19T22:27:43.733Z,22.75
2023-05-19T22:30:13.384Z,23.30
2023-05-19T22:32:42.795Z,23.10
2023-05-19T22:35:13.543Z,23.05
2023-05-19T22:37:43.286Z,22.33
2023-05-19T22:40:13.087Z,21.67
2023-05-19T22:42:42.423Z,23.42
2023-05-19T22:45:12.462Z,22.70
2023-05-19T22:47:41.958Z,22.63
2023-05-19T22:50:13.195Z,22.90
2023-05-19T22:52:43.474Z,23.63
2023-05-19T22:55:12.689Z,22.42
2023-05-19T22:57:42.043Z,21.88
2023-05-19T23:00:15.152Z,23.83
2023-05-19T23:02:44.518Z,24.08
2023-05-19T23:05:13.876Z,23.98
2023-05-19T23:07:43.289Z,24.38
2023-05-19T23:10:12.955Z,23.60
2023-05-19T23:12:42.322Z,25.75
2023-05-19T23:15:13.014Z,25.13
2023-05-19T23:17:42.428Z,25.27
2023-05-19T23:20:13.148Z,26.35
2023-05-19T23:22:42.560Z,25.13
2023-05-19T23:25:12.309Z,25.30
2023-05-19T23:27:42.096Z,25.40
2023-05-19T23:30:11.880Z,26.58
2023-05-19T23:32:42.861Z,27.00
2023-05-19T23:35:18.503Z,34.40
2023-05-19T23:37:47.919Z,36.50
2023-05-19T23:40:17.561Z,37.92
2023-05-19T23:42:47.051Z,33.63
2023-05-19T23:45:16.538Z,29.25
2023-05-19T23:47:45.978Z,32.15
2023-05-19T23:50:18.536Z,33.03
2023-05-19T23:52:55.310Z,34.25
2023-05-19T23:55:24.737Z,32.45
2023-05-19T23:57:54.052Z,30.63
